createdAt,value
2022-10-25T00:03:31.591Z,99288.59
2022-10-25T00:08:36.388Z,99299.75
2022-10-25T00:13:39.774Z,99295.41
2022-10-25T00:18:43.328Z,99295.34
2022-10-25T00:23:48.399Z,99302.34
2022-10-25T00:28:54.415Z,99304.53
2022-10-25T00:33:57.891Z,99304.66
2022-10-25T00:39:02.933Z,99303.19
2022-10-25T00:44:47.826Z,99300.88
2022-10-25T00:49:56.846Z,99301.22
2022-10-25T00:55:03.687Z,99311.56
2022-10-25T01:00:08.713Z,99300.78
2022-10-25T01:05:12.510Z,99323.19
2022-10-25T01:10:17.804Z,99328.97
2022-10-25T01:15:24.416Z,99316.03
2022-10-25T01:20:58.230Z,99321.13
2022-10-25T01:26:41.369Z,99332.66
2022-10-25T01:31:50.364Z,99329.84
2022-10-25T01:37:01.421Z,99336.97
2022-10-25T01:42:08.757Z,99311.94
2022-10-25T01:47:18.774Z,99334.88
2022-10-25T01:52:24.026Z,99303.28
2022-10-25T01:57:49.672Z,99332.22
2022-10-25T02:03:13.854Z,99332.94
2022-10-25T02:08:24.311Z,99341.84
2022-10-25T02:13:33.355Z,99343.56
2022-10-25T02:19:02.081Z,99342.38
2022-10-25T02:24:10.796Z,99333.44
2022-10-25T02:29:16.399Z,99348.41
2022-10-25T02:34:21.497Z,99340.34
2022-10-25T02:39:30.500Z,99356.56
2022-10-25T02:44:35.178Z,99355.44
2022-10-25T02:49:40.278Z,99350.28
2022-10-25T02:54:43.803Z,99361.06
2022-10-25T02:59:47.184Z,99359.16
2022-10-25T03:04:51.926Z,99358.97
2022-10-25T03:09:55.010Z,99357.72
2022-10-25T03:14:58.811Z,99356.78
2022-10-25T03:20:03.547Z,99345.44
2022-10-25T03:30:17.204Z,99352.56
2022-10-25T03:35:22.173Z,99356.06
2022-10-25T03:40:25.695Z,99359.50
2022-10-25T03:45:29.165Z,99356.09
2022-10-25T03:50:33.974Z,99359.38
2022-10-25T03:55:37.319Z,99367.94
2022-10-25T04:00:40.859Z,99364.75
2022-10-25T04:05:45.875Z,99370.91
2022-10-25T04:10:49.263Z,99370.91
2022-10-25T04:15:52.757Z,99372.16
2022-10-25T04:20:59.705Z,99374.13
2022-10-25T04:26:03.088Z,99374.13
2022-10-25T04:31:06.711Z,99372.34
2022-10-25T04:36:11.509Z,99363.66
2022-10-25T04:41:15.216Z,99355.56
2022-10-25T04:46:19.069Z,99365.59
2022-10-25T04:51:23.935Z,99367.81
2022-10-25T04:56:27.043Z,99364.03
2022-10-25T05:01:30.600Z,99363.97
2022-10-25T05:06:35.486Z,99372.50
2022-10-25T05:11:38.712Z,99368.84
2022-10-25T05:16:42.266Z,99369.25
2022-10-25T05:21:47.949Z,99390.56
2022-10-25T05:26:51.292Z,99395.56
2022-10-25T05:31:54.699Z,99405.91
2022-10-25T05:36:59.732Z,99399.16
2022-10-25T05:42:06.457Z,99402.72
2022-10-25T05:47:10.192Z,99398.66
2022-10-25T05:52:15.662Z,99372.88
2022-10-25T05:57:18.883Z,99401.13
2022-10-25T06:02:22.340Z,99386.00
2022-10-25T06:07:27.566Z,99386.47
2022-10-25T06:12:30.915Z,99389.81
2022-10-25T06:17:34.353Z,99381.38
2022-10-25T06:22:39.228Z,99380.50
2022-10-25T06:27:44.221Z,99384.19
2022-10-25T06:32:47.909Z,99391.50
2022-10-25T06:37:52.861Z,99392.25
2022-10-25T06:42:57.055Z,99392.25
2022-10-25T06:48:00.601Z,99404.53
2022-10-25T06:53:05.522Z,99406.72
2022-10-25T06:58:08.968Z,99401.81
2022-10-25T07:03:12.347Z,99403.91
2022-10-25T07:08:16.832Z,99410.41
2022-10-25T07:13:20.256Z,99414.00
2022-10-25T07:18:24.027Z,99418.84
2022-10-25T07:23:29.313Z,99425.38
2022-10-25T07:28:33.038Z,99427.00
2022-10-25T07:33:36.717Z,99421.28
2022-10-25T07:38:42.144Z,99416.91
2022-10-25T07:43:45.599Z,99424.13
2022-10-25T07:48:50.010Z,99424.97
2022-10-25T07:53:55.769Z,99418.69
2022-10-25T07:58:59.585Z,99425.56
2022-10-25T08:04:03.089Z,99419.66
2022-10-25T08:09:14.539Z,99428.56
2022-10-25T08:14:18.616Z,99427.59
2022-10-25T08:19:22.391Z,99428.78
2022-10-25T08:24:27.227Z,99422.09
2022-10-25T08:29:30.955Z,99428.31
2022-10-25T08:34:34.852Z,99421.44
2022-10-25T08:39:40.375Z,99418.28
2022-10-25T08:44:48.199Z,99413.09
2022-10-25T08:49:56.985Z,99414.16
2022-10-25T08:55:05.823Z,99411.13
2022-10-25T09:00:17.852Z,99414.09
2022-10-25T09:05:35.961Z,99412.69
2022-10-25T09:10:51.556Z,99415.47
2022-10-25T09:16:06.147Z,99413.06
2022-10-25T09:21:22.179Z,99425.31
2022-10-25T09:26:43.839Z,99414.94
2022-10-25T09:31:52.883Z,99416.66
2022-10-25T09:37:03.466Z,99426.91
2022-10-25T09:42:19.669Z,99420.81
2022-10-25T09:47:32.128Z,99416.38
2022-10-25T09:52:42.347Z,99410.00
2022-10-25T09:57:47.963Z,99416.75
2022-10-25T10:02:51.810Z,99415.84
2022-10-25T10:07:56.477Z,99405.91
2022-10-25T10:13:06.455Z,99406.69
2022-10-25T10:18:27.497Z,99405.63
2022-10-25T10:23:33.972Z,99410.50
2022-10-25T10:28:39.526Z,99408.38
2022-10-25T10:33:49.816Z,99410.69
2022-10-25T10:38:53.944Z,99401.78
2022-10-25T10:44:14.119Z,99406.91
2022-10-25T10:49:18.751Z,99415.31
2022-10-25T10:54:26.672Z,99407.47
2022-10-25T10:59:40.620Z,99400.47
2022-10-25T11:04:50.898Z,99400.44
2022-10-25T11:09:54.712Z,99400.34
2022-10-25T11:14:59.743Z,99403.94
2022-10-25T11:20:20.719Z,99405.69
2022-10-25T11:25:35.426Z,99401.47
2022-10-25T11:30:46.020Z,99405.16
2022-10-25T11:36:30.372Z,99407.13
2022-10-25T11:41:45.228Z,99404.59
2022-10-25T11:46:58.432Z,99405.50
2022-10-25T11:52:20.049Z,99399.28
2022-10-25T11:57:36.177Z,99376.81
2022-10-25T12:02:57.034Z,99401.53
2022-10-25T12:08:15.853Z,99393.91
2022-10-25T12:13:23.381Z,99396.53
2022-10-25T12:18:36.903Z,99397.19
2022-10-25T12:23:45.131Z,99399.00
2022-10-25T12:28:51.238Z,99400.66
2022-10-25T12:34:01.022Z,99401.63
2022-10-25T12:39:11.863Z,99403.25
2022-10-25T12:44:33.198Z,99393.69
2022-10-25T12:50:02.245Z,99398.78
2022-10-25T12:55:37.371Z,99402.41
2022-10-25T13:00:56.486Z,99376.22
2022-10-25T13:06:26.907Z,99396.38
2022-10-25T13:11:36.097Z,99408.50
2022-10-25T13:16:39.880Z,99413.25
2022-10-25T13:22:34.132Z,99427.72
2022-10-25T13:28:01.959Z,99424.94
2022-10-25T13:33:28.627Z,99423.94
2022-10-25T13:38:39.550Z,99417.50
2022-10-25T13:44:01.133Z,99412.78
2022-10-25T13:49:22.193Z,99419.28
2022-10-25T13:54:37.182Z,99400.56
2022-10-25T14:00:02.485Z,99429.66
2022-10-25T14:05:11.781Z,99425.81
2022-10-25T14:10:28.639Z,99427.84
2022-10-25T14:15:41.426Z,99428.94
2022-10-25T14:20:47.611Z,99429.13
2022-10-25T14:25:57.190Z,99430.91
2022-10-25T14:31:02.529Z,99435.41
2022-10-25T14:36:11.119Z,99428.00
2022-10-25T14:41:16.253Z,99436.03
2022-10-25T14:46:21.791Z,99445.81
2022-10-25T14:51:30.016Z,99444.44
2022-10-25T14:56:38.217Z,99459.34
2022-10-25T15:01:42.972Z,99447.53
2022-10-25T15:06:50.291Z,99448.97
2022-10-25T15:12:18.432Z,99440.66
2022-10-25T15:17:30.353Z,99438.56
2022-10-25T15:22:42.657Z,99437.41
2022-10-25T15:27:47.528Z,99441.38
2022-10-25T15:32:50.701Z,99455.09
2022-10-25T15:37:54.819Z,99447.41
2022-10-25T15:42:59.808Z,99460.38
2022-10-25T15:48:05.712Z,99456.16
2022-10-25T15:53:12.791Z,99455.31
2022-10-25T15:58:18.514Z,99431.75
2022-10-25T16:03:24.182Z,99461.28
2022-10-25T16:08:28.421Z,99448.31
2022-10-25T16:13:36.690Z,99455.34
2022-10-25T16:18:40.507Z,99460.34
2022-10-25T16:23:44.000Z,99464.44
2022-10-25T16:28:49.673Z,99466.97
2022-10-25T16:33:53.108Z,99476.91
2022-10-25T16:38:57.536Z,99477.59
2022-10-25T16:44:02.243Z,99477.56
2022-10-25T16:49:06.287Z,99468.66
2022-10-25T16:54:11.561Z,99474.09
2022-10-25T16:59:16.836Z,99484.41
2022-10-25T17:04:23.476Z,99481.41
2022-10-25T17:09:27.371Z,99487.78
2022-10-25T17:14:32.435Z,99475.63
2022-10-25T17:19:36.167Z,99485.78
2022-10-25T17:24:39.544Z,99484.47
2022-10-25T17:29:44.818Z,99482.88
2022-10-25T17:34:48.551Z,99473.25
2022-10-25T17:39:52.378Z,99474.88
2022-10-25T17:44:57.298Z,99475.63
2022-10-25T17:50:01.977Z,99477.06
2022-10-25T17:55:07.156Z,99477.09
2022-10-25T18:00:14.553Z,99478.56
2022-10-25T18:05:21.117Z,99483.56
2022-10-25T18:10:25.449Z,99477.84
2022-10-25T18:15:30.847Z,99483.03
2022-10-25T18:20:34.668Z,99481.19
2022-10-25T18:25:38.449Z,99478.47
2022-10-25T18:30:45.971Z,99483.03
2022-10-25T18:35:49.418Z,99481.19
2022-10-25T18:40:53.525Z,99482.09
2022-10-25T18:46:01.984Z,99471.25
2022-10-25T18:51:06.520Z,99468.56
2022-10-25T18:56:11.702Z,99480.44
2022-10-25T19:01:18.749Z,99482.13
2022-10-25T19:06:22.735Z,99489.66
2022-10-25T19:11:26.903Z,99492.06
2022-10-25T19:16:32.146Z,99477.00
2022-10-25T19:21:36.380Z,99485.81
2022-10-25T19:26:40.155Z,99464.69
2022-10-25T19:31:45.352Z,99478.97
2022-10-25T19:36:50.514Z,99481.19
2022-10-25T19:41:54.363Z,99475.66
2022-10-25T19:46:59.376Z,99478.13
2022-10-25T19:52:02.957Z,99486.03
2022-10-25T19:57:07.244Z,99491.75
2022-10-25T20:02:12.590Z,99496.56
2022-10-25T20:07:16.333Z,99486.13
2022-10-25T20:12:20.288Z,99479.75
2022-10-25T20:17:25.551Z,99480.06
2022-10-25T20:22:28.977Z,99476.94
2022-10-25T20:27:33.353Z,99483.47
2022-10-25T20:32:40.731Z,99478.25
2022-10-25T20:37:44.645Z,99479.09
2022-10-25T20:42:48.177Z,99471.38
2022-10-25T20:47:55.468Z,99469.44
2022-10-25T20:53:15.672Z,99466.66
2022-10-25T20:58:21.358Z,99450.16
2022-10-25T21:03:27.270Z,99449.84
2022-10-25T21:08:31.373Z,99469.47
2022-10-25T21:13:37.455Z,99465.34
2022-10-25T21:18:43.307Z,99458.34
2022-10-25T21:23:46.770Z,99466.81
2022-10-25T21:28:50.859Z,99478.59
2022-10-25T21:33:59.342Z,99478.16
2022-10-25T21:39:03.289Z,99470.00
2022-10-25T21:49:12.035Z,99490.44
2022-10-25T21:54:15.477Z,99487.06
2022-10-25T21:59:18.839Z,99493.47
2022-10-25T22:04:24.193Z,99495.03
2022-10-25T22:09:27.879Z,99500.63
2022-10-25T22:14:31.615Z,99496.22
2022-10-25T22:19:37.039Z,99505.56
2022-10-25T22:24:40.377Z,99498.81
2022-10-25T22:29:44.095Z,99503.94
2022-10-25T22:34:49.046Z,99509.41
2022-10-25T22:39:52.708Z,99511.91
2022-10-25T22:44:56.195Z,99503.34
2022-10-25T22:50:01.327Z,99518.00
2022-10-25T22:55:06.903Z,99501.59
2022-10-25T23:00:11.853Z,99512.94
2022-10-25T23:05:16.878Z,99511.59
2022-10-25T23:10:20.501Z,99515.78
2022-10-25T23:15:24.254Z,99512.53
2022-10-25T23:20:29.631Z,99532.19
2022-10-25T23:25:34.772Z,99526.38
2022-10-25T23:30:38.666Z,99529.91
2022-10-25T23:35:43.482Z,99522.66
2022-10-25T23:40:47.512Z,99529.53
2022-10-25T23:45:51.364Z,99529.16
2022-10-25T23:56:07.096Z,99509.63
